Time;durP1;ratioP1;P1;durP2;ratioP2;P2;SDS_P1;SDS_P2;PMS_P1;PMS_P2;Temp;Humidity;BMP_temperature;BMP_pressure;BME280_temperature;BME280_humidity;BME280_pressure;Samples;Min_cycle;Max_cycle;Signal;HPM_P1;HPM_P2
2021/12/27 00:00:20;;;;;;;3.53;2.10;;;;;;;6.71;84.60;98181.84;4969327;28;20619;-76
2021/12/27 00:02:48;;;;;;;3.67;2.15;;;;;;;6.69;84.96;98186.34;4969623;28;20463;-75
2021/12/27 00:05:13;;;;;;;2.97;2.28;;;;;;;6.66;84.87;98184.75;4969010;28;20031;-76
2021/12/27 00:07:39;;;;;;;3.10;2.40;;;;;;;6.65;84.74;98188.31;4969799;28;20122;-75
2021/12/27 00:10:06;;;;;;;4.28;2.97;;;;;;;6.63;85.09;98189.31;4969841;28;20041;-75
2021/12/27 00:12:31;;;;;;;5.03;2.92;;;;;;;6.65;85.32;98193.53;4968426;28;20170;-74
2021/12/27 00:14:56;;;;;;;4.85;2.20;;;;;;;6.66;85.46;98187.34;4968203;28;20126;-75
2021/12/27 00:17:22;;;;;;;4.05;2.85;;;;;;;6.72;85.23;98182.69;4969425;28;20384;-73
2021/12/27 00:19:47;;;;;;;4.35;2.63;;;;;;;6.75;85.09;98183.38;4951909;28;20056;-75
2021/12/27 00:22:13;;;;;;;3.70;2.50;;;;;;;6.76;85.25;98186.81;4969559;28;20086;-74
2021/12/27 00:24:38;;;;;;;4.55;2.83;;;;;;;6.72;84.92;98186.19;4969761;28;20086;-75
2021/12/27 00:27:04;;;;;;;6.18;2.35;;;;;;;6.67;85.13;98185.59;4968599;28;20089;-75
2021/12/27 00:29:29;;;;;;;3.70;2.97;;;;;;;6.63;85.05;98177.06;4952728;28;20782;-75
2021/12/27 00:31:55;;;;;;;3.28;2.67;;;;;;;6.64;84.92;98176.13;4968072;28;20031;-74
2021/12/27 00:34:20;;;;;;;2.85;2.25;;;;;;;6.62;85.23;98170.16;4951394;28;20082;-75
2021/12/27 00:36:45;;;;;;;3.05;2.20;;;;;;;6.68;85.25;98171.56;4968592;28;20066;-73
2021/12/27 00:39:11;;;;;;;2.80;2.10;;;;;;;6.68;84.87;98161.09;4968931;28;20039;-75
2021/12/27 00:41:36;;;;;;;3.50;2.90;;;;;;;6.73;84.59;98158.19;4969509;28;20035;-76
2021/12/27 00:44:02;;;;;;;3.30;2.45;;;;;;;6.77;84.77;98157.06;4968981;28;20050;-74
2021/12/27 00:46:27;;;;;;;3.33;2.47;;;;;;;6.77;84.57;98162.31;4966609;28;20045;-74
2021/12/27 00:48:52;;;;;;;3.22;2.47;;;;;;;6.77;84.39;98152.69;4969173;28;20039;-74
2021/12/27 00:51:18;;;;;;;3.05;2.25;;;;;;;6.75;83.65;98151.94;4969405;28;20035;-74
2021/12/27 00:53:43;;;;;;;2.58;2.03;;;;;;;6.74;84.00;98147.63;4969248;28;20039;-76
2021/12/27 00:56:09;;;;;;;2.63;2.05;;;;;;;6.72;83.61;98151.25;4972550;28;20038;-76
2021/12/27 00:58:34;;;;;;;2.50;2.00;;;;;;;6.67;83.61;98148.94;4955041;28;20078;-75
2021/12/27 01:01:00;;;;;;;4.78;2.50;;;;;;;6.63;83.43;98150.06;4952373;28;20070;-76
2021/12/27 01:03:26;;;;;;;2.90;2.40;;;;;;;6.56;83.73;98146.94;4972646;28;20407;-76
2021/12/27 01:05:51;;;;;;;3.33;2.28;;;;;;;6.53;83.68;98146.28;4971614;28;20037;-76
2021/12/27 01:08:17;;;;;;;3.65;3.00;;;;;;;6.43;83.88;98138.16;4971960;28;20568;-75
2021/12/27 01:15:52;;;;;;;3.38;2.60;;;;;;;6.32;84.05;98145.78;4991103;28;20031;-75
2021/12/27 01:18:19;;;;;;;3.28;2.30;;;;;;;6.24;84.42;98152.28;4992734;28;20046;-74
2021/12/27 01:20:45;;;;;;;4.25;2.97;;;;;;;6.20;84.28;98142.94;4991581;28;20057;-75
2021/12/27 01:23:12;;;;;;;3.30;2.50;;;;;;;6.18;84.34;98142.19;4992309;28;20069;-75
2021/12/27 01:25:37;;;;;;;2.95;2.45;;;;;;;6.19;84.52;98143.03;4991286;28;20108;-74
2021/12/27 01:28:04;;;;;;;4.13;2.90;;;;;;;6.19;84.60;98143.88;4990567;28;20062;-75
2021/12/27 01:30:31;;;;;;;3.55;2.47;;;;;;;6.20;84.88;98140.34;4989503;28;20442;-76
2021/12/27 01:33:00;;;;;;;3.63;2.95;;;;;;;6.24;84.58;98148.84;4991388;28;20092;-76
2021/12/27 01:35:26;;;;;;;3.53;2.47;;;;;;;6.30;84.71;98150.25;4990654;28;20042;-76
2021/12/27 01:37:53;;;;;;;3.78;3.00;;;;;;;6.32;84.44;98143.16;4990931;28;20042;-77
2021/12/27 01:40:22;;;;;;;3.25;2.60;;;;;;;6.37;84.85;98141.09;4990844;28;20042;-73
2021/12/27 01:43:06;;;;;;;3.05;2.40;;;;;;;6.44;84.61;98147.66;4974061;28;20026;-74
2021/12/27 01:45:32;;;;;;;3.80;2.88;;;;;;;6.46;84.19;98145.81;4990027;28;20402;-75
2021/12/27 01:47:58;;;;;;;3.85;3.03;;;;;;;6.46;84.35;98148.44;4973797;28;20042;-74
2021/12/27 01:50:24;;;;;;;3.10;2.30;;;;;;;6.47;84.49;98147.47;4990824;28;20041;-74
2021/12/27 01:52:50;;;;;;;3.53;2.90;;;;;;;6.49;84.71;98143.00;4991050;28;20037;-75
2021/12/27 01:55:16;;;;;;;3.53;2.70;;;;;;;6.50;84.54;98143.84;4988906;28;20108;-74
2021/12/27 01:57:42;;;;;;;4.55;3.65;;;;;;;6.49;84.87;98136.94;4991574;28;20070;-77
2021/12/27 02:00:08;;;;;;;4.10;3.00;;;;;;;6.50;84.96;98138.59;4991165;28;20042;-74
2021/12/27 02:02:33;;;;;;;4.30;2.97;;;;;;;6.49;84.84;98137.75;4958262;28;20053;-75
2021/12/27 02:04:59;;;;;;;4.18;3.20;;;;;;;6.51;85.10;98135.91;4990781;28;20498;-75
2021/12/27 02:07:24;;;;;;;3.25;2.33;;;;;;;6.54;85.16;98134.88;4973204;28;20038;-75
2021/12/27 02:10:01;;;;;;;4.00;3.25;;;;;;;6.55;85.17;98133.97;4991200;28;20043;-74
2021/12/27 02:12:27;;;;;;;3.85;2.50;;;;;;;6.61;85.03;98146.69;4981155;28;20537;-75
2021/12/27 02:14:52;;;;;;;5.07;3.17;;;;;;;6.63;84.83;98137.78;4973075;28;20038;-75
2021/12/27 02:17:18;;;;;;;4.40;3.35;;;;;;;6.62;84.58;98132.63;4990502;28;20098;-75
2021/12/27 02:19:51;;;;;;;4.47;3.33;;;;;;;6.63;85.09;98131.72;4990740;28;20034;-76
2021/12/27 02:22:17;;;;;;;3.13;2.67;;;;;;;6.68;85.15;98128.84;4990829;28;20034;-75
2021/12/27 02:24:42;;;;;;;3.70;2.80;;;;;;;6.73;84.70;98134.63;4990568;28;20038;-76
2021/12/27 02:27:11;;;;;;;4.32;2.80;;;;;;;6.75;84.60;98128.38;4990031;28;20034;-76
2021/12/27 02:29:37;;;;;;;3.80;2.17;;;;;;;6.81;84.94;98137.63;4990988;28;20035;-76
2021/12/27 02:32:02;;;;;;;3.65;2.67;;;;;;;6.83;84.61;98125.28;4996608;28;20031;-75
2021/12/27 02:34:27;;;;;;;3.63;2.80;;;;;;;6.85;84.34;98129.50;4998448;28;20113;-75
2021/12/27 02:36:53;;;;;;;3.33;2.75;;;;;;;6.86;84.60;98127.72;4996187;28;20042;-76
2021/12/27 02:39:18;;;;;;;4.03;3.35;;;;;;;6.84;84.24;98119.09;4994101;28;20038;-75
2021/12/27 02:41:44;;;;;;;4.32;2.78;;;;;;;6.83;84.43;98118.25;4991869;28;20085;-77
2021/12/27 02:44:09;;;;;;;4.00;3.10;;;;;;;6.82;84.65;98116.59;4991297;28;20049;-75
2021/12/27 02:46:35;;;;;;;3.63;2.92;;;;;;;6.82;84.54;98111.34;4990550;28;20440;-75
2021/12/27 02:49:00;;;;;;;3.65;2.85;;;;;;;6.80;84.70;98109.75;4990671;28;20046;-74
2021/12/27 02:51:26;;;;;;;4.20;2.92;;;;;;;6.80;84.78;98115.00;4974637;28;20067;-75
2021/12/27 02:53:51;;;;;;;3.38;2.60;;;;;;;6.81;84.85;98109.66;4991979;28;20073;-75
2021/12/27 02:56:19;;;;;;;4.18;3.17;;;;;;;6.82;84.82;98110.50;4991164;28;20041;-75
2021/12/27 02:58:47;;;;;;;3.97;3.33;;;;;;;6.84;84.49;98103.38;4997908;28;20049;-76
2021/12/27 03:01:16;;;;;;;4.95;2.55;;;;;;;6.85;84.68;98110.31;5000220;28;20046;-75
2021/12/27 03:03:42;;;;;;;3.60;2.63;;;;;;;6.86;84.78;98112.00;4996417;28;20145;-75
2021/12/27 03:06:08;;;;;;;4.22;3.05;;;;;;;6.88;84.70;98108.34;4972827;28;20121;-75
2021/12/27 03:08:35;;;;;;;3.60;3.05;;;;;;;6.90;84.96;98103.03;4990106;28;20046;-74
2021/12/27 03:11:03;;;;;;;6.47;3.08;;;;;;;6.91;84.53;98119.56;4990177;28;20031;-75
2021/12/27 03:13:31;;;;;;;3.00;2.33;;;;;;;6.88;84.84;98110.13;4989148;28;20173;-75
2021/12/27 03:16:00;;;;;;;4.28;2.97;;;;;;;6.87;84.63;98098.81;4988545;28;20039;-74
2021/12/27 03:18:26;;;;;;;3.65;2.80;;;;;;;6.86;84.76;98101.50;4989032;28;20394;-75
2021/12/27 03:20:52;;;;;;;4.93;2.63;;;;;;;6.82;84.64;98094.81;4989772;28;20409;-76
2021/12/27 03:23:18;;;;;;;5.57;3.10;;;;;;;6.79;84.97;98097.59;4989623;28;20125;-76
2021/12/27 03:25:44;;;;;;;3.75;2.40;;;;;;;6.80;84.88;98094.88;4971602;28;20605;-74
2021/12/27 03:28:09;;;;;;;3.83;2.60;;;;;;;6.81;84.91;98098.34;4989390;28;20121;-75
2021/12/27 03:30:35;;;;;;;2.92;2.17;;;;;;;6.81;85.13;98093.09;4989321;28;20034;-75
2021/12/27 03:33:01;;;;;;;3.85;2.22;;;;;;;6.82;84.82;98089.56;4989543;28;20042;-75
2021/12/27 03:35:29;;;;;;;2.70;2.00;;;;;;;6.80;84.54;98087.03;4988776;28;20092;-76
2021/12/27 03:37:57;;;;;;;3.20;2.22;;;;;;;6.78;84.37;98083.66;4989151;28;20497;-75
2021/12/27 03:40:24;;;;;;;2.75;1.90;;;;;;;6.80;84.78;98078.34;4971660;28;20447;-75
2021/12/27 03:42:50;;;;;;;4.05;2.45;;;;;;;6.78;84.31;98080.19;4988762;28;20034;-76
2021/12/27 03:45:21;;;;;;;3.20;1.95;;;;;;;6.75;84.19;98075.16;4988586;28;20521;-74
2021/12/27 03:47:48;;;;;;;5.10;2.47;;;;;;;6.62;84.38;98061.94;4989611;28;20041;-75
2021/12/27 03:50:14;;;;;;;2.72;2.15;;;;;;;6.60;84.63;98059.44;4988516;28;20165;-75
2021/12/27 03:52:39;;;;;;;4.25;1.67;;;;;;;6.61;84.57;98058.50;4988951;28;20043;-75
2021/12/27 03:55:06;;;;;;;2.13;1.70;;;;;;;6.63;84.30;98059.25;4988139;28;20045;-76
2021/12/27 03:57:34;;;;;;;2.67;1.85;;;;;;;6.65;84.38;98065.22;4989407;28;20034;-77
2021/12/27 04:02:39;;;;;;;2.50;1.98;;;;;;;6.70;83.98;98064.13;4988707;28;20483;-75
2021/12/27 04:05:08;;;;;;;2.90;2.20;;;;;;;6.71;84.03;98056.16;4988232;28;20046;-75
2021/12/27 04:07:35;;;;;;;2.72;2.03;;;;;;;6.72;84.09;98057.84;4989271;28;20437;-73
2021/12/27 04:10:00;;;;;;;2.38;1.70;;;;;;;6.76;83.97;98055.88;4989464;28;20513;-75
2021/12/27 04:12:25;;;;;;;2.85;2.17;;;;;;;6.76;83.63;98050.63;4988091;28;20046;-74
2021/12/27 04:14:51;;;;;;;2.78;1.77;;;;;;;6.76;83.69;98050.63;4988638;28;20053;-73
2021/12/27 04:17:16;;;;;;;5.18;2.60;;;;;;;6.77;83.89;98054.94;4971169;28;20506;-74
2021/12/27 04:19:42;;;;;;;6.65;2.72;;;;;;;6.76;83.96;98048.84;4988704;28;20037;-74
2021/12/27 04:22:07;;;;;;;3.30;2.33;;;;;;;6.73;83.69;98041.19;4988548;28;20487;-75
2021/12/27 04:24:32;;;;;;;5.90;3.47;;;;;;;6.74;83.54;98050.72;4971660;28;20394;-75
2021/12/27 04:26:58;;;;;;;3.92;2.42;;;;;;;6.74;83.48;98055.13;4971078;28;20043;-75
2021/12/27 04:29:23;;;;;;;4.60;2.85;;;;;;;6.74;83.61;98045.47;4990469;28;20039;-75
2021/12/27 04:31:48;;;;;;;3.78;2.70;;;;;;;6.72;83.35;98041.28;4976304;28;20088;-76
2021/12/27 04:34:14;;;;;;;4.10;3.00;;;;;;;6.70;83.27;98048.41;4992436;28;20477;-76
2021/12/27 04:36:39;;;;;;;4.28;2.90;;;;;;;6.68;83.28;98045.03;4975557;28;20034;-77
2021/12/27 04:39:05;;;;;;;7.25;3.10;;;;;;;6.68;83.25;98050.28;4993208;28;20081;-77
2021/12/27 04:41:30;;;;;;;4.57;3.33;;;;;;;6.66;83.28;98042.50;4992712;28;20034;-75
2021/12/27 04:43:56;;;;;;;5.45;2.88;;;;;;;6.60;82.79;98048.13;4992488;28;20041;-76
2021/12/27 04:46:21;;;;;;;4.68;3.45;;;;;;;6.55;82.69;98035.31;4991566;28;20035;-77
2021/12/27 04:48:51;;;;;;;4.18;3.03;;;;;;;6.51;82.76;98041.66;4992147;28;20030;-76
2021/12/27 04:51:16;;;;;;;5.15;2.63;;;;;;;6.43;82.57;98034.28;4991226;28;20042;-76
2021/12/27 04:53:41;;;;;;;4.30;2.92;;;;;;;6.41;82.98;98037.94;4991368;28;20415;-76
2021/12/27 04:56:07;;;;;;;4.43;3.25;;;;;;;6.42;82.81;98036.97;4991323;28;20150;-76
2021/12/27 04:58:32;;;;;;;5.72;3.08;;;;;;;6.41;82.82;98038.75;4992552;28;20131;-77
2021/12/27 05:00:57;;;;;;;5.30;3.53;;;;;;;6.36;82.86;98040.81;4991712;28;20101;-75
2021/12/27 05:03:23;;;;;;;4.03;3.25;;;;;;;6.38;82.75;98038.13;4964790;28;20109;-75
2021/12/27 05:05:48;;;;;;;5.32;3.08;;;;;;;6.38;82.53;98035.50;4998539;28;20441;-75
2021/12/27 05:08:14;;;;;;;6.55;3.30;;;;;;;6.40;82.79;98041.50;4982441;28;20030;-74
2021/12/27 05:10:39;;;;;;;4.90;3.80;;;;;;;6.39;82.56;98034.56;4999693;28;20074;-73
2021/12/27 05:13:05;;;;;;;3.92;2.88;;;;;;;6.38;82.76;98038.13;4996014;28;20046;-74
2021/12/27 05:15:30;;;;;;;5.88;3.75;;;;;;;6.31;82.58;98034.19;4996857;28;20554;-75
2021/12/27 05:17:56;;;;;;;4.45;3.30;;;;;;;6.27;82.84;98025.66;4995924;28;20057;-76
2021/12/27 05:20:21;;;;;;;5.63;3.50;;;;;;;6.23;82.81;98027.63;4992613;28;20042;-76
2021/12/27 05:22:47;;;;;;;4.57;3.22;;;;;;;6.16;83.08;98026.31;4991624;28;20030;-76
2021/12/27 05:25:16;;;;;;;6.00;4.15;;;;;;;6.13;82.72;98023.88;4991069;28;20046;-78
2021/12/27 05:27:42;;;;;;;5.10;3.45;;;;;;;6.08;83.24;98023.31;4992250;28;20061;-76
2021/12/27 05:30:09;;;;;;;5.13;3.40;;;;;;;6.06;83.05;98022.56;4974991;28;20045;-75
2021/12/27 05:32:35;;;;;;;3.88;2.97;;;;;;;6.02;83.10;98007.97;5012816;28;20042;-78
2021/12/27 05:35:03;;;;;;;6.30;3.83;;;;;;;6.01;82.97;98014.97;4996309;28;20034;-74
2021/12/27 05:37:29;;;;;;;3.95;2.90;;;;;;;5.97;82.99;98016.09;4990709;28;20034;-74
2021/12/27 05:39:54;;;;;;;6.03;2.80;;;;;;;5.94;83.33;98016.28;4991001;28;20491;-77
2021/12/27 05:42:20;;;;;;;4.88;3.17;;;;;;;5.91;83.19;98015.59;4991204;28;20034;-74
2021/12/27 05:44:45;;;;;;;5.20;3.58;;;;;;;5.87;83.25;98016.69;4990432;28;20027;-75
2021/12/27 05:47:11;;;;;;;4.32;3.20;;;;;;;5.84;83.31;98011.66;4991137;28;20041;-76
2021/12/27 05:49:36;;;;;;;4.03;2.60;;;;;;;5.80;83.41;98011.81;4991171;28;20113;-77
2021/12/27 05:52:02;;;;;;;5.00;2.90;;;;;;;5.76;83.27;98020.78;4991310;28;20042;-75
2021/12/27 05:54:27;;;;;;;4.63;2.75;;;;;;;5.72;83.20;98014.03;4990851;28;20046;-73
2021/12/27 05:56:53;;;;;;;4.47;2.95;;;;;;;5.68;83.70;98007.28;4990993;28;20521;-75
2021/12/27 05:59:18;;;;;;;4.28;2.65;;;;;;;5.65;83.49;97997.03;4989085;28;20030;-75
2021/12/27 06:01:44;;;;;;;4.00;2.70;;;;;;;5.59;83.58;98015.69;4989226;28;20565;-75
2021/12/27 06:04:10;;;;;;;4.43;2.83;;;;;;;5.57;83.55;98010.53;4974170;28;20038;-75
2021/12/27 06:06:36;;;;;;;6.60;4.22;;;;;;;5.54;83.84;98017.72;4972568;28;20674;-74
2021/12/27 06:09:04;;;;;;;3.67;2.75;;;;;;;5.49;83.73;98017.97;4991125;28;20042;-75
2021/12/27 06:11:30;;;;;;;4.35;2.80;;;;;;;5.45;83.75;98016.47;4990930;28;20548;-75
2021/12/27 06:13:55;;;;;;;5.60;3.28;;;;;;;5.44;84.54;98014.78;4990910;28;20042;-73
2021/12/27 06:16:21;;;;;;;4.57;3.22;;;;;;;5.40;84.51;98010.66;4989686;28;20049;-74
2021/12/27 06:18:47;;;;;;;7.47;3.58;;;;;;;5.40;84.18;98015.03;4990431;28;20034;-75
2021/12/27 06:21:13;;;;;;;4.28;3.22;;;;;;;5.37;84.58;98010.84;4992994;28;20035;-74
2021/12/27 06:23:38;;;;;;;8.32;3.40;;;;;;;5.38;84.49;98009.91;4994843;28;20041;-74
2021/12/27 06:26:04;;;;;;;4.22;3.45;;;;;;;5.35;84.98;98003.06;4994348;28;20446;-74
2021/12/27 06:28:31;;;;;;;7.90;3.20;;;;;;;5.36;85.23;98011.75;4997170;28;20034;-75
2021/12/27 06:30:57;;;;;;;4.00;2.58;;;;;;;5.31;85.17;98004.16;5007975;28;20038;-75
2021/12/27 06:33:23;;;;;;;3.60;2.63;;;;;;;5.32;85.66;97999.81;4993289;28;20053;-74
2021/12/27 06:35:48;;;;;;;3.50;2.20;;;;;;;5.32;85.41;97991.97;4990237;28;20038;-75
2021/12/27 06:38:14;;;;;;;6.47;2.70;;;;;;;5.36;85.41;98002.13;4991516;28;20026;-77
2021/12/27 06:40:39;;;;;;;3.28;2.28;;;;;;;5.36;85.14;97993.47;4990644;28;20073;-75
2021/12/27 06:43:04;;;;;;;3.88;2.85;;;;;;;5.36;85.43;98001.31;4991751;28;20038;-73
2021/12/27 06:45:30;;;;;;;3.97;2.38;;;;;;;5.36;85.43;97996.06;4990520;28;20035;-77
2021/12/27 06:47:55;;;;;;;4.80;3.10;;;;;;;5.31;85.40;97998.94;4989939;28;20121;-74
2021/12/27 06:50:23;;;;;;;3.22;2.45;;;;;;;5.30;85.21;97993.81;4990550;28;20042;-77
2021/12/27 06:52:48;;;;;;;4.38;2.65;;;;;;;5.28;85.12;97987.84;4993650;28;20065;-75
2021/12/27 06:55:14;;;;;;;3.92;2.53;;;;;;;5.27;85.38;97991.38;5006948;28;20038;-75
2021/12/27 06:57:40;;;;;;;5.15;2.85;;;;;;;5.25;85.51;97988.03;5007780;28;20023;-76
2021/12/27 07:00:09;;;;;;;3.58;2.00;;;;;;;5.25;85.38;97994.09;4995152;28;20508;-77
2021/12/27 07:02:34;;;;;;;4.47;2.20;;;;;;;5.24;85.73;97991.53;4989963;28;20046;-76
2021/12/27 07:04:59;;;;;;;4.38;2.70;;;;;;;5.22;85.19;97989.03;4989516;28;20034;-77
2021/12/27 07:07:25;;;;;;;2.60;2.17;;;;;;;5.22;85.17;97996.00;4990357;28;20026;-75
2021/12/27 07:09:50;;;;;;;3.28;2.42;;;;;;;5.19;85.61;97989.19;4990987;28;20038;-75
2021/12/27 07:12:16;;;;;;;2.40;1.75;;;;;;;5.20;85.84;97990.88;4992552;28;20118;-77
2021/12/27 07:14:42;;;;;;;4.93;2.20;;;;;;;5.24;85.71;97986.31;4992290;28;20384;-75
2021/12/27 07:17:07;;;;;;;3.55;2.30;;;;;;;5.25;85.53;97985.41;5005897;28;20121;-75
2021/12/27 07:19:32;;;;;;;4.97;1.92;;;;;;;5.27;85.67;97973.94;4989609;28;20042;-74
2021/12/27 07:21:58;;;;;;;3.55;2.55;;;;;;;5.25;85.29;97973.19;4989330;28;20093;-76
2021/12/27 07:24:23;;;;;;;5.47;2.42;;;;;;;5.25;85.22;97974.97;4971590;28;20085;-76
2021/12/27 07:26:49;;;;;;;3.58;2.67;;;;;;;5.25;85.31;97964.50;4989267;28;20085;-75
2021/12/27 07:29:14;;;;;;;4.80;2.65;;;;;;;5.22;84.84;97972.50;4990844;28;20524;-76
2021/12/27 07:31:39;;;;;;;4.15;2.50;;;;;;;5.16;84.72;97968.47;4990280;28;20053;-76
2021/12/27 07:34:05;;;;;;;2.97;2.20;;;;;;;5.14;85.53;97970.31;4991022;28;20123;-77
2021/12/27 07:36:31;;;;;;;3.92;2.58;;;;;;;5.12;85.36;97964.38;4989632;28;20043;-77
2021/12/27 07:38:57;;;;;;;3.60;2.60;;;;;;;5.13;85.82;97966.03;4990028;28;20045;-76
2021/12/27 07:41:23;;;;;;;3.40;2.17;;;;;;;5.16;85.21;97963.25;4991681;28;20114;-76
2021/12/27 07:43:48;;;;;;;6.20;3.25;;;;;;;5.11;84.17;97962.66;4989613;28;20117;-76
2021/12/27 07:46:14;;;;;;;4.00;2.90;;;;;;;5.06;85.79;97973.38;4989038;28;20038;-76
2021/12/27 07:48:39;;;;;;;6.63;3.20;;;;;;;5.05;85.56;97963.03;4989479;28;20034;-76
2021/12/27 07:51:04;;;;;;;5.68;3.30;;;;;;;5.03;85.54;97972.72;4989245;28;20046;-77
2021/12/27 07:53:30;;;;;;;3.92;2.97;;;;;;;5.04;85.81;97974.38;4989074;28;20891;-75
2021/12/27 07:55:55;;;;;;;7.68;2.92;;;;;;;5.12;86.18;97978.25;4995661;28;20034;-74
2021/12/27 07:58:21;;;;;;;4.07;2.63;;;;;;;5.22;85.81;97975.97;5010513;28;20022;-74
2021/12/27 08:00:50;;;;;;;3.78;2.15;;;;;;;5.35;85.96;97971.72;4989781;28;20034;-74
2021/12/27 08:03:19;;;;;;;6.43;2.63;;;;;;;5.47;85.94;97971.97;4989343;28;20034;-75
2021/12/27 08:05:45;;;;;;;4.53;2.67;;;;;;;5.55;85.70;97965.34;4988955;28;20404;-74
2021/12/27 08:08:10;;;;;;;3.55;2.28;;;;;;;5.64;85.53;97963.97;4995460;28;20113;-74
2021/12/27 08:10:36;;;;;;;4.55;2.72;;;;;;;5.67;85.15;97961.19;4990918;28;20371;-77
2021/12/27 08:13:02;;;;;;;4.05;2.50;;;;;;;5.75;85.16;97956.31;4989415;28;20098;-75
2021/12/27 08:15:28;;;;;;;4.43;3.08;;;;;;;5.79;84.35;97952.59;4988916;28;20046;-77
2021/12/27 08:17:53;;;;;;;3.53;2.30;;;;;;;5.86;84.01;97954.84;4990056;28;20185;-76
2021/12/27 08:20:19;;;;;;;4.50;3.03;;;;;;;5.92;84.49;97951.88;4989102;28;20038;-76
2021/12/27 08:22:44;;;;;;;4.90;2.90;;;;;;;5.97;83.21;97947.25;4990258;28;20034;-76
2021/12/27 08:25:09;;;;;;;4.70;3.05;;;;;;;6.00;83.52;97949.66;4954562;28;20045;-77
2021/12/27 08:27:38;;;;;;;4.40;3.05;;;;;;;6.02;83.37;97947.81;4988256;28;20061;-75
2021/12/27 08:30:05;;;;;;;4.00;2.60;;;;;;;6.09;83.35;97945.66;4989143;28;20509;-73
2021/12/27 08:32:39;;;;;;;4.78;2.95;;;;;;;6.12;82.64;97945.47;4989290;28;20675;-75
2021/12/27 08:35:06;;;;;;;5.45;3.22;;;;;;;6.13;82.59;97941.91;4972265;28;20058;-74
2021/12/27 08:37:32;;;;;;;7.18;3.05;;;;;;;6.14;82.67;97922.69;4990477;28;20049;-74
2021/12/27 08:39:58;;;;;;;5.85;4.13;;;;;;;6.07;82.16;97927.44;4990038;28;20030;-73
2021/12/27 08:42:24;;;;;;;5.50;3.35;;;;;;;6.10;82.66;97919.41;4991143;28;20398;-74
2021/12/27 08:44:50;;;;;;;6.60;3.50;;;;;;;6.12;82.69;97917.53;4991763;28;20041;-76
2021/12/27 08:47:15;;;;;;;6.35;3.85;;;;;;;6.13;82.41;97916.63;4971551;28;20486;-74
2021/12/27 08:49:41;;;;;;;4.30;2.90;;;;;;;6.20;83.58;97924.91;4971726;28;20034;-74
2021/12/27 08:52:07;;;;;;;4.95;3.70;;;;;;;6.30;84.19;97928.66;4988976;28;20042;-74
2021/12/27 08:54:33;;;;;;;10.73;3.95;;;;;;;6.36;82.95;97922.22;4988472;28;20101;-76
2021/12/27 08:56:58;;;;;;;5.00;3.33;;;;;;;6.39;83.31;97925.47;4988710;28;20042;-75
2021/12/27 08:59:24;;;;;;;9.18;3.42;;;;;;;6.42;82.72;97925.28;4988775;28;20041;-75
2021/12/27 09:01:52;;;;;;;6.30;4.05;;;;;;;6.48;82.88;97925.84;4988725;28;20119;-75
2021/12/27 09:04:17;;;;;;;5.50;3.95;;;;;;;6.48;83.58;97929.28;4989258;28;20517;-74
2021/12/27 09:06:42;;;;;;;8.52;5.93;;;;;;;6.46;83.66;97920.69;4989358;28;20038;-75
2021/12/27 09:09:08;;;;;;;5.60;3.97;;;;;;;6.51;84.16;97923.03;4989333;28;20104;-73
2021/12/27 09:11:34;;;;;;;6.57;4.78;;;;;;;6.53;83.06;97908.91;4988546;28;20030;-74
2021/12/27 09:13:59;;;;;;;8.90;4.38;;;;;;;6.52;83.65;97898.53;4989837;28;20521;-74
2021/12/27 09:16:25;;;;;;;4.47;3.20;;;;;;;6.66;84.17;97894.09;4992414;28;20038;-75
2021/12/27 09:18:50;;;;;;;4.85;3.22;;;;;;;6.80;83.90;97902.84;4993706;28;20077;-73
2021/12/27 09:21:16;;;;;;;6.70;3.22;;;;;;;6.93;83.69;97895.03;4992739;28;20169;-75
2021/12/27 09:23:41;;;;;;;6.28;4.28;;;;;;;7.03;82.28;97893.50;4992156;28;20026;-74
2021/12/27 09:26:06;;;;;;;5.30;3.83;;;;;;;7.12;82.41;97897.31;4991613;28;20402;-75
2021/12/27 09:28:32;;;;;;;7.53;4.25;;;;;;;7.23;82.08;97905.28;4991932;28;20597;-74
2021/12/27 09:30:58;;;;;;;5.10;3.58;;;;;;;7.36;82.31;97895.69;4993086;28;20513;-75
2021/12/27 09:33:24;;;;;;;6.30;4.07;;;;;;;7.68;81.39;97901.41;4978734;28;20038;-74
2021/12/27 09:35:50;;;;;;;4.68;3.50;;;;;;;9.05;79.00;97899.66;4997431;28;20040;-76
2021/12/27 09:38:15;;;;;;;7.25;3.75;;;;;;;10.14;74.23;97886.19;4999424;28;20085;-74
2021/12/27 09:40:41;;;;;;;4.05;2.70;;;;;;;11.34;70.70;97887.13;4984044;28;20030;-74
2021/12/27 09:43:07;;;;;;;2.95;2.25;;;;;;;12.10;66.38;97895.72;5004453;28;20486;-75
2021/12/27 09:45:33;;;;;;;1.63;1.45;;;;;;;12.57;65.34;97887.25;5001160;28;20042;-74
2021/12/27 09:47:58;;;;;;;2.30;1.20;;;;;;;12.66;64.64;97884.66;5002463;28;20035;-74
2021/12/27 09:50:23;;;;;;;2.88;1.65;;;;;;;12.95;63.99;97894.47;5003002;28;20054;-75
2021/12/27 09:52:49;;;;;;;1.77;1.30;;;;;;;13.10;62.91;97881.66;4992538;28;20494;-75
2021/12/27 09:55:16;;;;;;;1.75;1.60;;;;;;;13.44;62.67;97887.41;4992108;28;20045;-74
2021/12/27 09:57:41;;;;;;;2.50;1.15;;;;;;;13.40;61.32;97893.13;4991444;28;20486;-77
2021/12/27 10:00:08;;;;;;;2.15;1.27;;;;;;;13.07;63.30;97889.88;4974055;28;20114;-77
2021/12/27 10:02:36;;;;;;;1.65;1.23;;;;;;;12.77;64.21;97888.97;4990904;28;20053;-74
2021/12/27 10:05:02;;;;;;;4.03;1.55;;;;;;;12.13;64.52;97886.69;4991109;28;20043;-74
2021/12/27 10:07:29;;;;;;;2.55;1.50;;;;;;;11.92;65.10;97884.09;4993906;28;20060;-74
2021/12/27 10:09:58;;;;;;;1.20;1.10;;;;;;;11.69;66.01;97886.00;4997294;28;20469;-75
2021/12/27 10:12:24;;;;;;;1.50;1.30;;;;;;;11.59;66.53;97883.28;4989901;28;20805;-74
2021/12/27 10:15:04;;;;;;;2.30;1.52;;;;;;;11.58;67.01;97881.63;4990676;28;20034;-74
2021/12/27 10:17:31;;;;;;;1.85;1.30;;;;;;;11.44;66.79;97874.03;4991793;28;20038;-75
2021/12/27 10:20:07;;;;;;;2.45;1.55;;;;;;;11.15;67.83;97872.00;4999895;28;20034;-76
2021/12/27 10:22:38;;;;;;;2.08;1.60;;;;;;;10.63;69.76;97879.72;5002615;28;20062;-74
2021/12/27 10:25:08;;;;;;;1.88;1.25;;;;;;;10.42;70.79;97874.34;4979635;28;20038;-74
2021/12/27 10:27:36;;;;;;;1.35;1.25;;;;;;;10.22;71.44;97862.72;4989154;28;20026;-75
2021/12/27 10:30:14;;;;;;;2.05;1.45;;;;;;;10.16;72.37;97863.19;4989001;28;20046;-75
2021/12/27 10:32:39;;;;;;;1.52;1.20;;;;;;;10.06;72.57;97864.88;4989519;28;20042;-74
2021/12/27 10:35:07;;;;;;;4.63;1.48;;;;;;;9.98;72.50;97864.66;4989834;28;20447;-74
2021/12/27 10:37:33;;;;;;;1.42;1.15;;;;;;;9.87;73.21;97854.97;4989967;28;20618;-75
2021/12/27 10:40:01;;;;;;;1.45;1.13;;;;;;;9.80;73.33;97859.84;4989773;28;20117;-74
2021/12/27 10:42:30;;;;;;;2.30;1.55;;;;;;;9.77;73.90;97848.69;4990925;28;20042;-75
2021/12/27 10:45:18;;;;;;;2.33;1.35;;;;;;;9.79;73.77;97842.38;4991057;28;20062;-74
2021/12/27 10:48:02;;;;;;;1.05;1.00;;;;;;;9.76;74.23;97836.50;4999991;28;20410;-74
2021/12/27 10:50:32;;;;;;;1.60;1.30;;;;;;;9.69;74.62;97828.25;4995016;28;20072;-73
2021/12/27 10:53:05;;;;;;;4.15;1.30;;;;;;;9.71;74.27;97830.78;4999932;28;20113;-74
2021/12/27 10:55:38;;;;;;;2.15;1.45;;;;;;;9.74;74.58;97827.91;4979370;28;20038;-74
2021/12/27 10:58:23;;;;;;;1.50;1.30;;;;;;;9.75;74.97;97833.06;4976169;28;20518;-73
2021/12/27 11:00:55;;;;;;;1.92;1.30;;;;;;;9.75;74.58;97837.47;4976751;28;20034;-75
2021/12/27 11:03:35;;;;;;;3.85;1.63;;;;;;;9.75;74.60;97835.69;4995382;28;20045;-76
2021/12/27 11:06:05;;;;;;;2.28;1.42;;;;;;;9.81;75.13;97839.63;4975499;28;20034;-75
2021/12/27 11:08:31;;;;;;;2.17;1.40;;;;;;;9.87;74.99;97836.53;4990852;28;20046;-75
2021/12/27 11:10:57;;;;;;;1.60;1.50;;;;;;;9.92;74.55;97836.16;4994776;28;20042;-76
2021/12/27 11:13:24;;;;;;;1.95;1.25;;;;;;;9.90;74.94;97836.28;4977109;28;20034;-73
2021/12/27 11:15:50;;;;;;;1.30;1.20;;;;;;;9.94;74.52;97834.25;4957928;28;20129;-74
2021/12/27 11:18:15;;;;;;;2.70;1.45;;;;;;;9.96;74.57;97834.97;4987536;28;20604;-74
2021/12/27 11:20:46;;;;;;;1.48;1.10;;;;;;;9.93;75.26;97836.03;4987189;28;20486;-78
2021/12/27 11:23:14;;;;;;;1.40;1.30;;;;;;;9.94;75.49;97824.53;4986937;28;20034;-76
2021/12/27 11:25:42;;;;;;;1.10;1.00;;;;;;;10.00;74.65;97815.34;4986213;28;20034;-76
2021/12/27 11:28:29;;;;;;;1.33;1.23;;;;;;;10.04;74.38;97820.25;4986991;28;20495;-75
2021/12/27 11:30:56;;;;;;;2.33;1.10;;;;;;;10.02;74.15;97819.53;4986840;28;20038;-75
2021/12/27 11:33:22;;;;;;;1.27;1.05;;;;;;;10.02;75.03;97811.63;4987721;28;20034;-76
2021/12/27 11:35:57;;;;;;;1.50;1.20;;;;;;;10.01;74.70;97809.13;4987789;28;20479;-75
2021/12/27 11:38:31;;;;;;;1.40;1.23;;;;;;;10.02;74.61;97806.38;4968700;28;20034;-74
2021/12/27 11:40:57;;;;;;;2.83;1.20;;;;;;;10.03;74.57;97802.78;4987641;28;20434;-76
2021/12/27 11:43:22;;;;;;;1.38;1.27;;;;;;;10.01;75.21;97794.16;4986634;28;20042;-73
2021/12/27 11:45:55;;;;;;;1.67;1.20;;;;;;;10.03;74.88;97797.50;4987737;28;20049;-76